首页
METAR-TAF:

METAR-TAF

机场 :

維多利亞城, 墨西哥

纬度: 23-43N, 经度: 098-58W, 海拔: 238米

当前天气观测

该预报发布于36分钟前的15:44 UTC
风速4节,风向
温度 25°C
湿度 94%
气压 1015 hPa
能見度: 6.4公里
阴天层高于300英尺

METAR: MMCV 241544Z 35004KT 4SM OVC003 25/24 A2997 RMK 60105 8/6// VRB COND -DZE38

时间: 11:20 (16:20 UTC)

预报

该预报发布于2小时和38分钟前的13:42 UTC
预报有效从24日的 14点(UTC)到 25日的 06点(UTC)
风速节,风向
能見度: 1.6公里
阴天层高于500英尺
毛毛雨, 轻雾
短暂存在
从 24日的 14点(UTC)到 24日的 16点(UTC)
能見度: 1.2公里
层高于300英尺
雾, 小毛毛雨
从 24日的 1700点(UTC)
风速5节,风向
能見度: 3.2公里
阴天层高于1000英尺
从 24日的 2100点(UTC)
风速5节,风向北转西北
能見度: 6.4公里
多云层高于1000英尺
多云层高于5000英尺
小雨
短暂存在
从 24日的 20点(UTC)到 24日的 24点(UTC)
能見度: 6.4公里
从 25日的 0300点(UTC)
风速节,风向
能見度: 8.0公里
多云层高于2000英尺
霾,

TAF: MMCV 241342Z 2414/2506 00000KT 1SM DZ BR OVC005 TEMPO 2414/2416 3/4SM FG -DZ VV003 FM241700 35005KT 2SM RA OVC010 FM242100 34005KT 4SM -RA BKN010 BKN050 TEMPO 2420/2424 4SM RA FM250300 00000KT 5SM HZ BKN020

超过4000个机场的气象观测和天气预报(METAR&TAF报告)。

可查询的气象台以黄色和红色小点在地图上表示。

将鼠标移到小点上方,可查看气象台名称。

然后点击查看天气观测和预报。

如需切换地图:点击带黑十字的绿色按钮放大地图;点击带横线的绿色按钮缩小地图;或者点击绿色箭头查看邻近地区的地图。


METAR-TAF: